sensor_id;sensor_type;location;lat;lon;timestamp;temperature;humidity
44731;DHT22;30458;47.448;19.032;2022-07-18T00:08:16;21.60;61.40
44731;DHT22;30458;47.448;19.032;2022-07-18T00:18:19;21.40;62.00
44731;DHT22;30458;47.448;19.032;2022-07-18T00:28:23;21.10;62.70
44731;DHT22;30458;47.448;19.032;2022-07-18T00:38:24;21.00;62.00
44731;DHT22;30458;47.448;19.032;2022-07-18T00:48:25;20.90;62.30
44731;DHT22;30458;47.448;19.032;2022-07-18T00:58:26;20.90;61.00
44731;DHT22;30458;47.448;19.032;2022-07-18T01:08:31;20.90;61.00
44731;DHT22;30458;47.448;19.032;2022-07-18T01:18:33;20.90;60.50
44731;DHT22;30458;47.448;19.032;2022-07-18T01:28:34;20.60;60.80
44731;DHT22;30458;47.448;19.032;2022-07-18T01:38:35;20.60;60.80
44731;DHT22;30458;47.448;19.032;2022-07-18T01:48:40;20.60;61.20
44731;DHT22;30458;47.448;19.032;2022-07-18T01:58:41;20.50;61.30
44731;DHT22;30458;47.448;19.032;2022-07-18T02:08:47;20.50;61.00
44731;DHT22;30458;47.448;19.032;2022-07-18T02:18:50;20.60;60.70
44731;DHT22;30458;47.448;19.032;2022-07-18T02:28:51;20.50;61.30
44731;DHT22;30458;47.448;19.032;2022-07-18T02:38:52;20.60;61.10
44731;DHT22;30458;47.448;19.032;2022-07-18T02:48:55;20.80;60.90
44731;DHT22;30458;47.448;19.032;2022-07-18T02:58:58;20.70;61.20
44731;DHT22;30458;47.448;19.032;2022-07-18T03:08:59;20.50;61.90
44731;DHT22;30458;47.448;19.032;2022-07-18T03:19:02;20.40;62.00
44731;DHT22;30458;47.448;19.032;2022-07-18T03:29:03;20.30;62.20
44731;DHT22;30458;47.448;19.032;2022-07-18T03:39:05;20.50;62.10
44731;DHT22;30458;47.448;19.032;2022-07-18T03:49:09;20.70;61.70
44731;DHT22;30458;47.448;19.032;2022-07-18T03:59:10;21.00;61.80
44731;DHT22;30458;47.448;19.032;2022-07-18T04:09:13;21.40;61.20
44731;DHT22;30458;47.448;19.032;2022-07-18T04:19:16;21.70;61.10
44731;DHT22;30458;47.448;19.032;2022-07-18T04:29:22;21.80;61.00
44731;DHT22;30458;47.448;19.032;2022-07-18T04:39:23;22.40;60.60
44731;DHT22;30458;47.448;19.032;2022-07-18T04:49:24;23.30;59.60
44731;DHT22;30458;47.448;19.032;2022-07-18T04:59:25;24.30;57.60
44731;DHT22;30458;47.448;19.032;2022-07-18T05:09:28;25.00;55.90
44731;DHT22;30458;47.448;19.032;2022-07-18T05:19:31;25.60;55.00
44731;DHT22;30458;47.448;19.032;2022-07-18T05:29:32;26.00;54.00
44731;DHT22;30458;47.448;19.032;2022-07-18T05:39:33;26.30;53.50
44731;DHT22;30458;47.448;19.032;2022-07-18T05:49:36;26.60;52.70
44731;DHT22;30458;47.448;19.032;2022-07-18T05:59:37;27.20;52.30
44731;DHT22;30458;47.448;19.032;2022-07-18T06:09:42;27.60;51.70
44731;DHT22;30458;47.448;19.032;2022-07-18T06:19:45;28.00;51.80
44731;DHT22;30458;47.448;19.032;2022-07-18T06:29:48;28.40;50.90
44731;DHT22;30458;47.448;19.032;2022-07-18T06:39:49;28.80;50.90
44731;DHT22;30458;47.448;19.032;2022-07-18T06:49:52;29.10;50.50
44731;DHT22;30458;47.448;19.032;2022-07-18T06:59:56;29.60;50.40
44731;DHT22;30458;47.448;19.032;2022-07-18T07:09:57;30.10;49.60
44731;DHT22;30458;47.448;19.032;2022-07-18T07:19:58;29.00;50.20
44731;DHT22;30458;47.448;19.032;2022-07-18T07:30:01;28.40;51.20
44731;DHT22;30458;47.448;19.032;2022-07-18T07:40:06;28.10;50.60
44731;DHT22;30458;47.448;19.032;2022-07-18T07:50:08;27.80;49.40
44731;DHT22;30458;47.448;19.032;2022-07-18T08:00:12;27.20;51.00
44731;DHT22;30458;47.448;19.032;2022-07-18T08:10:13;26.70;52.30
44731;DHT22;30458;47.448;19.032;2022-07-18T08:20:14;27.10;51.60
44731;DHT22;30458;47.448;19.032;2022-07-18T08:30:17;27.30;52.00
44731;DHT22;30458;47.448;19.032;2022-07-18T08:40:21;27.30;51.80
44731;DHT22;30458;47.448;19.032;2022-07-18T08:50:22;27.70;51.40
44731;DHT22;30458;47.448;19.032;2022-07-18T09:00:25;27.40;50.90
44731;DHT22;30458;47.448;19.032;2022-07-18T09:10:41;27.10;51.30
44731;DHT22;30458;47.448;19.032;2022-07-18T09:21:06;27.40;51.20
44731;DHT22;30458;47.448;19.032;2022-07-18T09:31:17;27.30;51.00
44731;DHT22;30458;47.448;19.032;2022-07-18T09:41:26;27.70;51.40
44731;DHT22;30458;47.448;19.032;2022-07-18T09:51:27;27.80;50.60
44731;DHT22;30458;47.448;19.032;2022-07-18T10:01:31;27.70;49.90
44731;DHT22;30458;47.448;19.032;2022-07-18T10:11:32;27.60;50.20
44731;DHT22;30458;47.448;19.032;2022-07-18T10:21:34;27.40;50.00
44731;DHT22;30458;47.448;19.032;2022-07-18T10:32:00;27.30;48.70
44731;DHT22;30458;47.448;19.032;2022-07-18T10:52:02;27.40;45.80
44731;DHT22;30458;47.448;19.032;2022-07-18T11:02:05;27.30;45.70
44731;DHT22;30458;47.448;19.032;2022-07-18T11:12:24;27.10;46.40
44731;DHT22;30458;47.448;19.032;2022-07-18T11:22:28;27.10;46.10
44731;DHT22;30458;47.448;19.032;2022-07-18T11:32:32;27.20;46.60
44731;DHT22;30458;47.448;19.032;2022-07-18T11:42:42;27.40;47.90
44731;DHT22;30458;47.448;19.032;2022-07-18T11:52:44;27.10;47.00
44731;DHT22;30458;47.448;19.032;2022-07-18T12:03:14;27.00;47.30
44731;DHT22;30458;47.448;19.032;2022-07-18T12:13:17;27.10;46.10
44731;DHT22;30458;47.448;19.032;2022-07-18T12:23:27;27.30;46.80
44731;DHT22;30458;47.448;19.032;2022-07-18T12:33:32;27.40;46.30
44731;DHT22;30458;47.448;19.032;2022-07-18T12:43:38;27.50;44.50
44731;DHT22;30458;47.448;19.032;2022-07-18T12:53:42;27.40;44.90
44731;DHT22;30458;47.448;19.032;2022-07-18T13:03:43;27.50;44.00
44731;DHT22;30458;47.448;19.032;2022-07-18T13:13:44;27.60;43.30
44731;DHT22;30458;47.448;19.032;2022-07-18T13:23:45;27.70;43.30
44731;DHT22;30458;47.448;19.032;2022-07-18T13:33:49;27.70;43.00
44731;DHT22;30458;47.448;19.032;2022-07-18T13:43:58;27.60;43.00
44731;DHT22;30458;47.448;19.032;2022-07-18T13:54:04;27.80;43.10
44731;DHT22;30458;47.448;19.032;2022-07-18T14:04:05;27.90;44.40
44731;DHT22;30458;47.448;19.032;2022-07-18T14:14:06;28.00;44.90
44731;DHT22;30458;47.448;19.032;2022-07-18T14:24:09;28.00;45.10
44731;DHT22;30458;47.448;19.032;2022-07-18T14:34:10;28.20;45.10
44731;DHT22;30458;47.448;19.032;2022-07-18T14:44:11;28.10;45.30
44731;DHT22;30458;47.448;19.032;2022-07-18T14:54:12;28.10;45.10
44731;DHT22;30458;47.448;19.032;2022-07-18T15:04:15;28.20;44.90
44731;DHT22;30458;47.448;19.032;2022-07-18T15:14:17;28.30;45.90
44731;DHT22;30458;47.448;19.032;2022-07-18T15:24:18;28.40;45.00
44731;DHT22;30458;47.448;19.032;2022-07-18T15:34:18;28.50;45.10
44731;DHT22;30458;47.448;19.032;2022-07-18T15:44:21;28.40;45.40
44731;DHT22;30458;47.448;19.032;2022-07-18T15:54:22;28.40;45.80
44731;DHT22;30458;47.448;19.032;2022-07-18T16:04:23;28.40;46.20
44731;DHT22;30458;47.448;19.032;2022-07-18T16:14:25;28.50;45.80
44731;DHT22;30458;47.448;19.032;2022-07-18T16:24:26;28.40;46.30
44731;DHT22;30458;47.448;19.032;2022-07-18T16:34:29;28.40;45.90
44731;DHT22;30458;47.448;19.032;2022-07-18T16:44:30;28.30;46.00
44731;DHT22;30458;47.448;19.032;2022-07-18T16:54:34;28.30;46.20
44731;DHT22;30458;47.448;19.032;2022-07-18T17:04:36;28.20;46.00
44731;DHT22;30458;47.448;19.032;2022-07-18T17:14:37;28.20;46.00
44731;DHT22;30458;47.448;19.032;2022-07-18T17:24:38;28.10;45.80
44731;DHT22;30458;47.448;19.032;2022-07-18T17:34:40;28.10;46.60
44731;DHT22;30458;47.448;19.032;2022-07-18T17:44:44;28.00;47.10
44731;DHT22;30458;47.448;19.032;2022-07-18T17:54:45;28.00;48.00
44731;DHT22;30458;47.448;19.032;2022-07-18T18:04:46;27.90;48.20
44731;DHT22;30458;47.448;19.032;2022-07-18T18:14:47;27.70;50.30
44731;DHT22;30458;47.448;19.032;2022-07-18T18:24:48;27.60;51.30
44731;DHT22;30458;47.448;19.032;2022-07-18T18:34:49;27.40;50.00
44731;DHT22;30458;47.448;19.032;2022-07-18T18:44:53;27.20;50.20
44731;DHT22;30458;47.448;19.032;2022-07-18T18:54:54;27.00;51.30
44731;DHT22;30458;47.448;19.032;2022-07-18T19:04:55;26.80;50.90
44731;DHT22;30458;47.448;19.032;2022-07-18T19:14:58;26.60;53.50
44731;DHT22;30458;47.448;19.032;2022-07-18T19:25:00;26.40;55.10
44731;DHT22;30458;47.448;19.032;2022-07-18T19:35:03;26.10;53.50
44731;DHT22;30458;47.448;19.032;2022-07-18T19:45:10;26.00;53.40
44731;DHT22;30458;47.448;19.032;2022-07-18T19:55:12;25.70;53.00
44731;DHT22;30458;47.448;19.032;2022-07-18T20:05:15;25.60;51.90
44731;DHT22;30458;47.448;19.032;2022-07-18T20:15:18;25.60;51.30
44731;DHT22;30458;47.448;19.032;2022-07-18T20:25:22;25.50;54.10
44731;DHT22;30458;47.448;19.032;2022-07-18T20:35:23;25.40;54.80
44731;DHT22;30458;47.448;19.032;2022-07-18T20:45:25;25.20;55.60
44731;DHT22;30458;47.448;19.032;2022-07-18T20:55:28;25.10;55.50
44731;DHT22;30458;47.448;19.032;2022-07-18T21:05:31;25.00;57.00
44731;DHT22;30458;47.448;19.032;2022-07-18T21:15:34;24.80;57.50
44731;DHT22;30458;47.448;19.032;2022-07-18T21:25:38;24.60;57.60
44731;DHT22;30458;47.448;19.032;2022-07-18T21:35:41;24.30;57.60
44731;DHT22;30458;47.448;19.032;2022-07-18T21:45:43;24.00;58.30
44731;DHT22;30458;47.448;19.032;2022-07-18T21:55:46;23.90;58.30
44731;DHT22;30458;47.448;19.032;2022-07-18T22:05:49;23.70;58.80
44731;DHT22;30458;47.448;19.032;2022-07-18T22:15:52;23.60;59.00
44731;DHT22;30458;47.448;19.032;2022-07-18T22:25:53;23.60;59.60
44731;DHT22;30458;47.448;19.032;2022-07-18T22:35:55;23.40;59.40
44731;DHT22;30458;47.448;19.032;2022-07-18T22:45:58;23.20;60.40
44731;DHT22;30458;47.448;19.032;2022-07-18T22:56:02;23.00;60.70
44731;DHT22;30458;47.448;19.032;2022-07-18T23:06:03;22.80;61.00
44731;DHT22;30458;47.448;19.032;2022-07-18T23:16:05;22.70;61.80
44731;DHT22;30458;47.448;19.032;2022-07-18T23:26:08;22.50;62.70
44731;DHT22;30458;47.448;19.032;2022-07-18T23:36:09;22.10;63.30
44731;DHT22;30458;47.448;19.032;2022-07-18T23:46:13;22.20;63.20
44731;DHT22;30458;47.448;19.032;2022-07-18T23:56:13;21.90;64.10
